Time;durP1;ratioP1;P1;durP2;ratioP2;P2;SDS_P1;SDS_P2;PMS_P1;PMS_P2;Temp;Humidity;BMP_temperature;BMP_pressure;BME280_temperature;BME280_humidity;BME280_pressure;Samples;Min_cycle;Max_cycle;Signal;HPM_P1;HPM_P2
2024/02/23 00:00:39;;;;;;;0.20;0.20;;;2.50;99.90;;;;;;2055003;28;20233;-76
2024/02/23 00:01:40;;;;;;;0.20;0.20;;;2.50;99.90;;;;;;2054652;28;20228;-77
2024/02/23 00:02:41;;;;;;;0.20;0.20;;;2.40;99.90;;;;;;2052961;28;20222;-75
2024/02/23 00:03:41;;;;;;;0.20;0.20;;;2.40;99.90;;;;;;2052515;28;20241;-75
2024/02/23 00:04:42;;;;;;;0.20;0.20;;;2.40;99.90;;;;;;2047107;28;20233;-76
2024/02/23 00:05:42;;;;;;;0.30;0.30;;;2.40;99.90;;;;;;2048127;28;20230;-75
2024/02/23 00:06:43;;;;;;;0.20;0.20;;;2.40;99.90;;;;;;2053088;28;20229;-75
2024/02/23 00:07:44;;;;;;;0.30;0.30;;;2.40;99.90;;;;;;2053496;28;20625;-75
2024/02/23 00:08:44;;;;;;;0.20;0.20;;;2.50;99.90;;;;;;2045873;28;20267;-75
2024/02/23 00:09:45;;;;;;;0.20;0.20;;;2.50;99.90;;;;;;2045746;28;20231;-76
2024/02/23 00:10:46;;;;;;;0.20;0.20;;;2.50;99.90;;;;;;2036513;29;20263;-74
2024/02/23 00:11:49;;;;;;;0.20;0.20;;;2.50;99.90;;;;;;2045053;29;20262;-75
2024/02/23 00:12:49;;;;;;;0.20;0.20;;;2.50;99.90;;;;;;2047371;28;20588;-75
2024/02/23 00:13:50;;;;;;;0.20;0.20;;;2.50;99.90;;;;;;2056048;28;20328;-75
2024/02/23 00:14:51;;;;;;;0.20;0.20;;;2.50;99.90;;;;;;2055411;28;20222;-75
2024/02/23 00:15:51;;;;;;;0.20;0.20;;;2.60;99.90;;;;;;2046604;29;20812;-75
2024/02/23 00:16:52;;;;;;;0.30;0.30;;;2.70;99.90;;;;;;2045913;29;20237;-75
2024/02/23 00:17:53;;;;;;;0.20;0.20;;;2.70;99.90;;;;;;2045289;28;20238;-75
2024/02/23 00:18:53;;;;;;;0.30;0.30;;;2.70;99.90;;;;;;2061728;28;21489;-74
2024/02/23 00:19:54;;;;;;;0.27;0.27;;;2.80;99.90;;;;;;2055778;28;20201;-74
2024/02/23 00:20:56;;;;;;;0.20;0.20;;;2.80;99.90;;;;;;2055187;28;20204;-75
2024/02/23 00:21:58;;;;;;;0.40;0.40;;;2.80;99.90;;;;;;2051613;28;20254;-75
2024/02/23 00:22:59;;;;;;;0.30;0.30;;;2.70;99.90;;;;;;2054909;28;20190;-73
2024/02/23 00:24:00;;;;;;;0.40;0.40;;;2.60;99.90;;;;;;2059062;28;20272;-72
2024/02/23 00:25:00;;;;;;;0.50;0.50;;;2.60;99.90;;;;;;2059584;28;20290;-75
2024/02/23 00:26:01;;;;;;;0.40;0.37;;;2.50;99.90;;;;;;2053519;28;20194;-74
2024/02/23 00:27:02;;;;;;;0.30;0.30;;;2.50;99.90;;;;;;2052432;28;20213;-75
2024/02/23 00:28:04;;;;;;;0.40;0.40;;;2.50;99.90;;;;;;2058586;28;20197;-75
2024/02/23 00:29:05;;;;;;;0.77;0.70;;;2.50;99.90;;;;;;2058630;28;20201;-75
2024/02/23 00:30:06;;;;;;;0.40;0.40;;;2.60;99.90;;;;;;2050150;28;20188;-75
2024/02/23 00:31:07;;;;;;;0.95;0.65;;;2.50;99.90;;;;;;2047786;28;20183;-75
2024/02/23 00:32:08;;;;;;;0.50;0.50;;;2.60;99.90;;;;;;2049375;28;20196;-75
2024/02/23 00:33:09;;;;;;;0.30;0.30;;;2.60;99.90;;;;;;2054541;28;20294;-74
2024/02/23 00:34:12;;;;;;;0.20;0.20;;;2.60;99.90;;;;;;2050788;28;20209;-75
2024/02/23 00:35:13;;;;;;;0.30;0.30;;;2.60;99.90;;;;;;2056577;28;20184;-74
2024/02/23 00:36:14;;;;;;;0.33;0.33;;;2.60;99.90;;;;;;2060372;28;20693;-74
2024/02/23 00:37:15;;;;;;;1.83;0.40;;;2.60;99.90;;;;;;2053845;28;20234;-75
2024/02/23 00:38:15;;;;;;;0.30;0.30;;;2.60;99.90;;;;;;2059706;28;20237;-74
2024/02/23 00:39:16;;;;;;;0.37;0.37;;;2.60;99.90;;;;;;2041758;29;20734;-74
2024/02/23 00:40:17;;;;;;;0.30;0.30;;;2.60;99.90;;;;;;2050678;28;20321;-74
2024/02/23 00:41:17;;;;;;;0.30;0.30;;;2.60;99.90;;;;;;2046710;28;20257;-74
2024/02/23 00:42:18;;;;;;;0.50;0.40;;;2.60;99.90;;;;;;2056847;28;20229;-74
2024/02/23 00:43:19;;;;;;;1.00;0.37;;;2.60;99.90;;;;;;2067313;28;21088;-76
2024/02/23 00:44:20;;;;;;;0.30;0.30;;;2.60;99.90;;;;;;2054207;28;20231;-75
2024/02/23 00:45:21;;;;;;;0.20;0.20;;;2.70;99.90;;;;;;2054437;28;20298;-75
2024/02/23 00:46:22;;;;;;;0.25;0.25;;;2.70;99.90;;;;;;2054757;28;20230;-74
2024/02/23 00:47:22;;;;;;;0.20;0.20;;;2.70;99.90;;;;;;2046218;28;20240;-75
2024/02/23 00:48:23;;;;;;;0.30;0.30;;;2.70;99.90;;;;;;2054861;28;20234;-75
2024/02/23 00:49:24;;;;;;;2.03;0.30;;;2.70;99.90;;;;;;2051597;28;20239;-75
2024/02/23 00:50:26;;;;;;;0.20;0.20;;;2.70;99.90;;;;;;2054550;28;20238;-75
2024/02/23 00:51:27;;;;;;;0.30;0.30;;;2.70;99.90;;;;;;2055026;28;20233;-74
2024/02/23 00:52:28;;;;;;;0.57;0.50;;;2.70;99.90;;;;;;2047035;28;20239;-76
2024/02/23 00:53:30;;;;;;;0.30;0.30;;;2.60;99.90;;;;;;2048783;28;20292;-75
2024/02/23 00:54:31;;;;;;;0.30;0.30;;;2.50;99.90;;;;;;2046307;28;20274;-75
2024/02/23 00:55:32;;;;;;;0.30;0.30;;;2.50;99.90;;;;;;2054645;28;20320;-75
2024/02/23 00:56:32;;;;;;;0.40;0.30;;;2.60;99.90;;;;;;2059679;28;20243;-75
2024/02/23 00:57:33;;;;;;;0.30;0.30;;;2.60;99.90;;;;;;2054459;28;20229;-75
2024/02/23 00:58:34;;;;;;;1.40;0.43;;;2.60;99.90;;;;;;2054652;28;20272;-75
2024/02/23 00:59:35;;;;;;;0.70;0.30;;;2.60;99.90;;;;;;2054599;28;20280;-75
2024/02/23 01:00:35;;;;;;;0.40;0.40;;;2.70;99.90;;;;;;2063347;28;20234;-75
2024/02/23 01:01:36;;;;;;;0.57;0.50;;;2.70;99.90;;;;;;2055307;28;20747;-75
2024/02/23 01:02:38;;;;;;;0.30;0.30;;;2.60;99.90;;;;;;2049819;28;20256;-75
2024/02/23 01:03:38;;;;;;;1.52;0.60;;;2.60;99.90;;;;;;2045843;28;20629;-75
2024/02/23 01:04:39;;;;;;;0.43;0.33;;;2.60;99.90;;;;;;2049312;28;20235;-76
2024/02/23 01:05:42;;;;;;;0.77;0.40;;;2.70;99.90;;;;;;2055545;28;20664;-75
2024/02/23 01:06:43;;;;;;;0.80;0.40;;;2.70;99.90;;;;;;2055185;28;20510;-75
2024/02/23 01:07:43;;;;;;;1.20;0.43;;;2.70;99.90;;;;;;2050585;28;20234;-76
2024/02/23 01:08:44;;;;;;;1.10;0.40;;;2.60;99.90;;;;;;2039386;29;20318;-75
2024/02/23 01:09:45;;;;;;;1.43;0.63;;;2.60;99.90;;;;;;2043584;29;20281;-75
2024/02/23 01:10:45;;;;;;;0.30;0.30;;;2.60;99.90;;;;;;2046422;28;20249;-75
2024/02/23 01:11:49;;;;;;;1.10;0.40;;;2.70;99.90;;;;;;2038684;29;20247;-76
2024/02/23 01:12:50;;;;;;;1.63;0.80;;;2.70;99.90;;;;;;2054110;28;20260;-75
2024/02/23 01:13:50;;;;;;;1.03;0.40;;;2.60;99.90;;;;;;2046950;28;20589;-75
2024/02/23 01:14:51;;;;;;;2.37;0.40;;;2.60;99.90;;;;;;2053927;28;20889;-75
2024/02/23 01:15:53;;;;;;;0.77;0.50;;;2.60;99.90;;;;;;2046367;28;20227;-74
2024/02/23 01:16:54;;;;;;;0.95;0.70;;;2.60;99.90;;;;;;2045229;28;20220;-74
2024/02/23 01:17:56;;;;;;;1.90;0.30;;;2.60;99.90;;;;;;2044107;28;20633;-74
2024/02/23 01:18:56;;;;;;;0.40;0.40;;;2.60;99.90;;;;;;2045394;29;20684;-75
2024/02/23 01:19:57;;;;;;;0.40;0.40;;;2.70;99.90;;;;;;2044975;28;20225;-75
2024/02/23 01:20:58;;;;;;;0.40;0.40;;;2.70;99.90;;;;;;2047296;28;20188;-74
2024/02/23 01:22:01;;;;;;;0.43;0.43;;;2.70;99.90;;;;;;2043973;28;20610;-75
2024/02/23 01:23:02;;;;;;;0.50;0.50;;;2.70;99.90;;;;;;2057462;28;20213;-75
2024/02/23 01:24:04;;;;;;;0.40;0.40;;;2.70;99.90;;;;;;2051083;28;20627;-75
2024/02/23 01:25:05;;;;;;;0.70;0.47;;;2.70;99.90;;;;;;2054458;28;20662;-75
2024/02/23 01:26:06;;;;;;;0.57;0.40;;;2.60;99.90;;;;;;2046684;28;20196;-75
2024/02/23 01:27:07;;;;;;;0.43;0.43;;;2.70;99.90;;;;;;2044399;28;20294;-75
2024/02/23 01:28:09;;;;;;;0.50;0.50;;;2.70;99.90;;;;;;2052075;28;20198;-75
2024/02/23 01:29:09;;;;;;;0.97;0.50;;;2.70;99.90;;;;;;2052425;28;20190;-75
2024/02/23 01:30:11;;;;;;;1.20;0.43;;;2.80;99.90;;;;;;2051744;28;20271;-75
2024/02/23 01:31:12;;;;;;;0.30;0.30;;;2.80;99.90;;;;;;2060971;28;20247;-75
2024/02/23 01:32:12;;;;;;;1.97;0.43;;;2.70;99.90;;;;;;2042636;29;20643;-75
2024/02/23 01:33:14;;;;;;;0.53;0.40;;;2.70;99.90;;;;;;2037602;29;20780;-73
2024/02/23 01:34:14;;;;;;;0.60;0.52;;;2.70;99.90;;;;;;2037175;28;20746;-74
2024/02/23 01:35:15;;;;;;;1.47;0.60;;;2.60;99.90;;;;;;2044600;28;20235;-74
2024/02/23 01:36:16;;;;;;;2.07;0.57;;;2.50;99.90;;;;;;2046778;28;20286;-74
2024/02/23 01:37:17;;;;;;;0.50;0.40;;;2.50;99.90;;;;;;2046090;28;20314;-74
2024/02/23 01:38:20;;;;;;;0.73;0.73;;;2.60;99.90;;;;;;2036837;29;20938;-74
2024/02/23 01:39:21;;;;;;;0.60;0.38;;;2.60;99.90;;;;;;2042219;28;20238;-74
2024/02/23 01:40:22;;;;;;;0.50;0.50;;;2.60;99.90;;;;;;2054512;28;20238;-74
2024/02/23 01:41:23;;;;;;;0.70;0.70;;;2.60;99.90;;;;;;2054354;28;20233;-75
2024/02/23 01:42:24;;;;;;;0.90;0.40;;;2.60;99.90;;;;;;2057970;28;20622;-75
2024/02/23 01:43:25;;;;;;;0.45;0.45;;;2.60;99.90;;;;;;2061655;28;20321;-76
2024/02/23 01:44:25;;;;;;;0.50;0.50;;;2.60;99.90;;;;;;2054133;28;20308;-74
2024/02/23 01:45:26;;;;;;;0.93;0.80;;;2.60;99.90;;;;;;2046165;28;20230;-75
2024/02/23 01:46:27;;;;;;;0.67;0.43;;;2.70;99.90;;;;;;2045778;28;20309;-74
2024/02/23 01:47:29;;;;;;;1.00;0.60;;;2.70;99.90;;;;;;2058820;28;20240;-74
2024/02/23 01:48:29;;;;;;;0.73;0.50;;;2.80;99.90;;;;;;2054504;28;20529;-74
2024/02/23 01:49:33;;;;;;;0.40;0.40;;;2.90;99.90;;;;;;2054429;28;20329;-74
2024/02/23 01:50:35;;;;;;;0.65;0.40;;;2.90;99.90;;;;;;2058688;28;20627;-74
2024/02/23 01:51:36;;;;;;;0.88;0.57;;;2.80;99.90;;;;;;2046683;28;20235;-72
2024/02/23 01:52:37;;;;;;;3.05;1.00;;;2.80;99.90;;;;;;2044272;28;20235;-75
2024/02/23 01:53:38;;;;;;;6.78;0.77;;;2.80;99.90;;;;;;2048482;28;20239;-74
2024/02/23 01:54:39;;;;;;;1.70;0.40;;;2.70;99.90;;;;;;2050240;28;20582;-74
2024/02/23 01:55:44;;;;;;;0.60;0.60;;;2.80;99.90;;;;;;2054750;28;20238;-74
2024/02/23 01:56:45;;;;;;;0.63;0.50;;;2.70;99.90;;;;;;2048784;28;20837;-74
2024/02/23 01:57:47;;;;;;;1.33;0.60;;;2.70;99.90;;;;;;2053392;28;20233;-74
2024/02/23 01:58:48;;;;;;;0.50;0.50;;;2.70;99.90;;;;;;2054084;28;20359;-74
2024/02/23 01:59:50;;;;;;;0.63;0.50;;;2.80;99.90;;;;;;2054553;28;20225;-74
2024/02/23 02:00:50;;;;;;;0.50;0.50;;;2.80;99.90;;;;;;2054418;28;20222;-74
2024/02/23 02:01:51;;;;;;;2.47;0.87;;;2.80;99.90;;;;;;2051434;28;20222;-74
2024/02/23 02:02:52;;;;;;;0.87;0.87;;;2.70;99.90;;;;;;2051670;28;20229;-74
2024/02/23 02:03:52;;;;;;;2.17;0.50;;;2.70;99.90;;;;;;2055071;28;20262;-74
2024/02/23 02:04:53;;;;;;;2.47;0.80;;;2.70;99.90;;;;;;2053512;28;20257;-74
2024/02/23 02:05:58;;;;;;;1.77;0.57;;;2.70;99.90;;;;;;2048124;28;20306;-73
2024/02/23 02:07:00;;;;;;;0.52;0.50;;;2.70;99.90;;;;;;2058385;28;20200;-74
2024/02/23 02:08:01;;;;;;;1.58;0.50;;;2.60;99.90;;;;;;2052403;28;20274;-74
2024/02/23 02:09:02;;;;;;;1.63;0.60;;;2.50;99.90;;;;;;2050334;28;20679;-74
2024/02/23 02:10:06;;;;;;;0.50;0.32;;;2.50;99.90;;;;;;2044691;28;20191;-74
2024/02/23 02:11:07;;;;;;;1.75;0.50;;;2.50;99.90;;;;;;2053077;28;20190;-75
2024/02/23 02:12:08;;;;;;;1.73;0.50;;;2.50;99.90;;;;;;2052630;28;20210;-74
2024/02/23 02:13:09;;;;;;;1.65;0.85;;;2.50;99.90;;;;;;2052998;28;20233;-74
2024/02/23 02:14:10;;;;;;;0.97;0.63;;;2.50;99.90;;;;;;2053186;28;20197;-74
2024/02/23 02:15:11;;;;;;;1.00;0.50;;;2.50;99.90;;;;;;2053123;28;20685;-74
2024/02/23 02:16:12;;;;;;;1.70;0.50;;;2.50;99.90;;;;;;2053383;28;20181;-75
2024/02/23 02:17:12;;;;;;;0.40;0.40;;;2.60;99.90;;;;;;2045222;28;20724;-75
2024/02/23 02:18:13;;;;;;;0.50;0.40;;;2.60;99.90;;;;;;2053460;28;20190;-75
2024/02/23 02:19:14;;;;;;;0.60;0.50;;;2.70;99.90;;;;;;2044795;28;20249;-74
2024/02/23 02:20:18;;;;;;;0.63;0.40;;;2.70;99.90;;;;;;2049584;28;20235;-74
2024/02/23 02:21:23;;;;;;;0.55;0.55;;;2.80;99.90;;;;;;2045334;28;20230;-74
2024/02/23 02:22:24;;;;;;;0.93;0.60;;;2.70;99.90;;;;;;2045850;28;20237;-75
2024/02/23 02:23:26;;;;;;;0.50;0.50;;;2.70;99.90;;;;;;2049355;28;20253;-75
2024/02/23 02:24:28;;;;;;;1.50;0.60;;;2.70;99.90;;;;;;2053349;28;20237;-74
2024/02/23 02:25:28;;;;;;;0.98;0.50;;;2.60;99.90;;;;;;2056706;28;20716;-74
2024/02/23 02:26:30;;;;;;;1.23;0.60;;;2.60;99.90;;;;;;2045336;28;20292;-75
2024/02/23 02:27:31;;;;;;;0.82;0.63;;;2.50;99.90;;;;;;2036204;28;20705;-75
2024/02/23 02:28:32;;;;;;;1.63;0.80;;;2.60;99.90;;;;;;2050244;28;20234;-74
2024/02/23 02:29:32;;;;;;;0.52;0.50;;;2.60;99.90;;;;;;2037045;28;20231;-74
2024/02/23 02:30:33;;;;;;;0.93;0.50;;;2.60;99.90;;;;;;2051168;28;20238;-75
2024/02/23 02:31:37;;;;;;;0.90;0.50;;;2.60;99.90;;;;;;2061406;28;20229;-76
2024/02/23 02:32:37;;;;;;;0.40;0.40;;;2.60;99.90;;;;;;2052362;28;20719;-74
2024/02/23 02:33:40;;;;;;;0.50;0.50;;;2.60;99.90;;;;;;2056623;28;20272;-73
2024/02/23 02:34:41;;;;;;;0.68;0.60;;;2.60;99.90;;;;;;2050693;28;20234;-73
2024/02/23 02:35:42;;;;;;;4.20;0.60;;;2.50;99.90;;;;;;2057545;28;20278;-75
2024/02/23 02:36:42;;;;;;;3.13;0.60;;;2.60;99.90;;;;;;2054397;28;20233;-75
2024/02/23 02:37:43;;;;;;;3.57;0.60;;;2.60;99.90;;;;;;2045988;28;20279;-75
2024/02/23 02:38:44;;;;;;;1.77;0.90;;;2.60;99.90;;;;;;2048222;28;20226;-75
2024/02/23 02:39:44;;;;;;;1.60;0.60;;;2.70;99.90;;;;;;2049195;28;20222;-75
2024/02/23 02:40:45;;;;;;;1.57;0.80;;;2.60;99.90;;;;;;2053782;28;20754;-75
2024/02/23 02:41:47;;;;;;;0.60;0.60;;;2.60;99.90;;;;;;2057684;28;20269;-76
2024/02/23 02:42:48;;;;;;;1.05;0.80;;;2.70;99.90;;;;;;2051794;28;20237;-75
2024/02/23 02:43:49;;;;;;;3.83;1.13;;;2.70;99.90;;;;;;2043345;29;20736;-76
2024/02/23 02:44:49;;;;;;;2.23;0.60;;;2.60;99.90;;;;;;2037388;29;20298;-76
2024/02/23 02:45:50;;;;;;;2.43;0.80;;;2.50;99.90;;;;;;2051856;28;20304;-75
2024/02/23 02:46:51;;;;;;;1.00;0.73;;;2.50;99.90;;;;;;2046098;28;20224;-76
2024/02/23 02:47:51;;;;;;;0.70;0.50;;;2.40;99.90;;;;;;2045516;28;20720;-76
2024/02/23 02:48:52;;;;;;;2.00;0.77;;;2.40;99.90;;;;;;2052600;28;20253;-76
2024/02/23 02:49:53;;;;;;;1.07;0.63;;;2.40;99.90;;;;;;2057685;28;20645;-76
2024/02/23 02:50:54;;;;;;;1.07;0.73;;;2.40;99.90;;;;;;2058680;28;20289;-75
2024/02/23 02:51:55;;;;;;;1.30;0.50;;;2.40;99.90;;;;;;2051885;28;20267;-76
2024/02/23 02:52:56;;;;;;;1.00;0.73;;;2.40;99.90;;;;;;2045889;28;20698;-75
2024/02/23 02:53:57;;;;;;;3.08;0.68;;;2.40;99.90;;;;;;2051186;28;20181;-75
2024/02/23 02:54:57;;;;;;;3.67;0.80;;;2.40;99.90;;;;;;2046271;28;20281;-76
2024/02/23 02:55:58;;;;;;;4.23;0.87;;;2.40;99.90;;;;;;2048649;28;20210;-76
2024/02/23 02:56:59;;;;;;;1.23;0.57;;;2.40;99.90;;;;;;2048673;28;20203;-76
2024/02/23 02:57:59;;;;;;;0.87;0.57;;;2.30;99.90;;;;;;2054110;28;20187;-76
2024/02/23 02:59:00;;;;;;;0.83;0.80;;;2.40;99.90;;;;;;2067879;28;20180;-76
2024/02/23 03:00:01;;;;;;;0.63;0.50;;;2.40;99.90;;;;;;2051551;28;20211;-76
2024/02/23 03:01:02;;;;;;;1.05;0.70;;;2.50;99.90;;;;;;2043816;28;20178;-76
2024/02/23 03:02:03;;;;;;;3.07;0.67;;;2.50;99.90;;;;;;2052219;28;20202;-76
2024/02/23 03:03:04;;;;;;;0.67;0.60;;;2.50;99.90;;;;;;2051196;28;20237;-76
2024/02/23 03:04:05;;;;;;;1.70;0.55;;;2.50;99.90;;;;;;2057476;28;20181;-77
2024/02/23 03:05:06;;;;;;;2.43;0.60;;;2.40;99.90;;;;;;2045642;28;20206;-77
2024/02/23 03:06:07;;;;;;;1.85;0.60;;;2.40;99.90;;;;;;2036078;28;20657;-76
2024/02/23 03:07:07;;;;;;;2.10;0.60;;;2.40;99.90;;;;;;2053468;28;20203;-77
2024/02/23 03:08:08;;;;;;;1.37;0.43;;;2.40;99.90;;;;;;2058962;28;20600;-77
2024/02/23 03:09:08;;;;;;;1.17;0.60;;;2.30;99.90;;;;;;2047226;28;20201;-77
2024/02/23 03:10:09;;;;;;;0.73;0.50;;;2.40;99.90;;;;;;2042678;28;20187;-76
2024/02/23 03:11:10;;;;;;;0.67;0.47;;;2.40;99.90;;;;;;2036409;28;20175;-77
2024/02/23 03:12:11;;;;;;;1.90;0.60;;;2.50;99.90;;;;;;2049308;28;20270;-77
2024/02/23 03:13:11;;;;;;;0.67;0.63;;;2.50;99.90;;;;;;2067820;28;20266;-77
2024/02/23 03:14:12;;;;;;;2.10;0.60;;;2.60;99.90;;;;;;2065920;28;20724;-76
2024/02/23 03:15:13;;;;;;;1.37;0.60;;;2.60;99.90;;;;;;2051997;28;20186;-76
2024/02/23 03:16:17;;;;;;;1.40;0.90;;;2.70;99.90;;;;;;2043648;28;20599;-77
2024/02/23 03:17:18;;;;;;;1.25;0.57;;;2.80;99.90;;;;;;2036839;29;20264;-77
2024/02/23 03:18:19;;;;;;;0.50;0.50;;;2.90;99.90;;;;;;2049347;28;20238;-77
2024/02/23 03:19:22;;;;;;;0.80;0.60;;;2.90;99.90;;;;;;2052239;28;20229;-76
2024/02/23 03:20:23;;;;;;;0.47;0.47;;;2.90;99.90;;;;;;2048679;28;20249;-76
2024/02/23 03:21:23;;;;;;;2.30;0.90;;;2.90;99.90;;;;;;2036637;29;20231;-77
2024/02/23 03:22:24;;;;;;;1.50;0.70;;;2.80;99.90;;;;;;2036699;29;20321;-77
2024/02/23 03:23:25;;;;;;;3.60;0.60;;;2.70;99.90;;;;;;2040974;29;20270;-76
2024/02/23 03:24:25;;;;;;;1.67;0.80;;;2.60;99.90;;;;;;2051256;28;20298;-77
2024/02/23 03:25:26;;;;;;;0.90;0.57;;;2.50;99.90;;;;;;2044129;28;20230;-77
2024/02/23 03:26:27;;;;;;;1.40;0.80;;;2.60;99.90;;;;;;2032554;29;20292;-77
2024/02/23 03:27:31;;;;;;;4.03;0.60;;;2.60;99.90;;;;;;2042585;28;20617;-76
2024/02/23 03:28:32;;;;;;;3.60;0.60;;;2.60;99.90;;;;;;2038030;28;20234;-77
2024/02/23 03:29:32;;;;;;;1.90;0.60;;;2.80;99.90;;;;;;2038111;29;20697;-77
2024/02/23 03:30:33;;;;;;;1.93;0.80;;;2.80;99.90;;;;;;2036775;29;20270;-77
2024/02/23 03:31:34;;;;;;;0.83;0.60;;;2.80;99.90;;;;;;2031339;29;20231;-77
2024/02/23 03:32:38;;;;;;;1.90;0.60;;;2.90;99.90;;;;;;2034947;29;20609;-77
2024/02/23 03:33:39;;;;;;;1.13;0.57;;;2.90;99.90;;;;;;2041060;28;20243;-77
2024/02/23 03:34:40;;;;;;;1.07;0.53;;;2.90;99.90;;;;;;2046978;28;20322;-77
2024/02/23 03:35:41;;;;;;;0.95;0.65;;;2.80;99.90;;;;;;2061016;28;20232;-77
2024/02/23 03:36:41;;;;;;;1.20;0.70;;;2.70;99.90;;;;;;2052570;28;20719;-77
2024/02/23 03:37:42;;;;;;;2.30;0.60;;;2.70;99.90;;;;;;2045463;28;20642;-76
2024/02/23 03:38:43;;;;;;;1.43;0.67;;;2.70;99.90;;;;;;2044102;28;20230;-77
2024/02/23 03:39:43;;;;;;;3.03;0.60;;;2.60;99.90;;;;;;2036818;29;20279;-77
2024/02/23 03:40:44;;;;;;;2.87;0.60;;;2.60;99.90;;;;;;2050181;28;20230;-77
2024/02/23 03:41:45;;;;;;;3.90;0.87;;;2.60;99.90;;;;;;2055248;28;20226;-75
2024/02/23 03:42:46;;;;;;;1.90;0.77;;;2.50;99.90;;;;;;2053571;28;20225;-76
2024/02/23 03:43:46;;;;;;;2.93;1.00;;;2.50;99.90;;;;;;2053079;28;20225;-75
2024/02/23 03:44:47;;;;;;;0.83;0.50;;;2.60;99.90;;;;;;2051641;28;20275;-76
2024/02/23 03:45:48;;;;;;;1.40;0.70;;;2.50;99.90;;;;;;2049983;28;20230;-75
2024/02/23 03:46:48;;;;;;;1.00;0.70;;;2.50;99.90;;;;;;2060803;28;20229;-77
2024/02/23 03:47:49;;;;;;;1.00;0.63;;;2.50;99.90;;;;;;2054184;28;20668;-75
2024/02/23 03:48:50;;;;;;;4.07;1.27;;;2.50;99.90;;;;;;2055321;28;20233;-75
2024/02/23 03:49:50;;;;;;;1.27;0.73;;;2.60;99.90;;;;;;2061485;28;20224;-75
2024/02/23 03:50:51;;;;;;;0.50;0.50;;;2.50;99.90;;;;;;2046824;28;20226;-75
2024/02/23 03:51:52;;;;;;;0.70;0.70;;;2.60;99.90;;;;;;2053433;28;20724;-74
2024/02/23 03:52:53;;;;;;;2.03;0.68;;;2.50;99.90;;;;;;2036883;28;20226;-75
2024/02/23 03:53:54;;;;;;;1.87;0.60;;;2.50;99.90;;;;;;2030995;29;20640;-75
2024/02/23 03:54:55;;;;;;;0.70;0.60;;;2.40;99.90;;;;;;2042193;28;20211;-75
2024/02/23 03:55:56;;;;;;;0.70;0.60;;;2.30;99.90;;;;;;2043084;28;20178;-75
2024/02/23 03:56:57;;;;;;;1.10;0.60;;;2.30;99.90;;;;;;2053338;28;20604;-76
2024/02/23 03:57:59;;;;;;;2.00;1.08;;;2.30;99.90;;;;;;2061809;28;20309;-75
2024/02/23 03:58:59;;;;;;;0.80;0.80;;;2.30;99.90;;;;;;2047578;28;20183;-74
2024/02/23 04:00:00;;;;;;;0.40;0.40;;;2.30;99.90;;;;;;2054556;28;20221;-76
2024/02/23 04:01:01;;;;;;;1.47;0.47;;;2.30;99.90;;;;;;2061338;28;20213;-76
2024/02/23 04:02:01;;;;;;;2.10;0.83;;;2.30;99.90;;;;;;2051020;28;20191;-77
2024/02/23 04:03:02;;;;;;;0.87;0.60;;;2.30;99.90;;;;;;2047482;28;20241;-77
2024/02/23 04:04:04;;;;;;;0.60;0.60;;;2.30;99.90;;;;;;2052853;28;20182;-76
2024/02/23 04:05:05;;;;;;;0.75;0.70;;;2.30;99.90;;;;;;2050104;28;20272;-77
2024/02/23 04:06:07;;;;;;;1.00;0.50;;;2.30;99.90;;;;;;2040791;29;20180;-77
2024/02/23 04:07:08;;;;;;;0.88;0.57;;;2.30;99.90;;;;;;2046492;28;20202;-77
2024/02/23 04:08:08;;;;;;;0.90;0.50;;;2.30;99.90;;;;;;2060885;28;20181;-76
2024/02/23 04:09:09;;;;;;;0.73;0.50;;;2.30;99.90;;;;;;2047595;28;20277;-77
2024/02/23 04:10:10;;;;;;;1.37;0.70;;;2.20;99.90;;;;;;2041234;28;20270;-77
2024/02/23 04:11:13;;;;;;;1.33;0.80;;;2.20;99.90;;;;;;2040861;28;20779;-77
2024/02/23 04:12:13;;;;;;;1.20;0.70;;;2.20;99.90;;;;;;2054426;28;20953;-77
2024/02/23 04:13:14;;;;;;;1.03;0.60;;;2.20;99.90;;;;;;2060686;28;20361;-76
2024/02/23 04:14:15;;;;;;;3.20;0.60;;;2.20;99.90;;;;;;2043103;28;20250;-76
2024/02/23 04:15:16;;;;;;;2.97;1.00;;;2.20;99.90;;;;;;2039958;29;20254;-76
2024/02/23 04:16:16;;;;;;;2.23;0.83;;;2.20;99.90;;;;;;2031812;29;20286;-76
2024/02/23 04:17:17;;;;;;;1.83;0.50;;;2.20;99.90;;;;;;2041885;28;20251;-76
2024/02/23 04:18:18;;;;;;;1.53;0.80;;;2.20;99.90;;;;;;2040583;28;20240;-76
2024/02/23 04:19:18;;;;;;;3.57;0.90;;;2.20;99.90;;;;;;2039464;29;20250;-77
2024/02/23 04:20:19;;;;;;;1.57;0.60;;;2.10;99.90;;;;;;2054861;28;20745;-76
2024/02/23 04:21:20;;;;;;;1.40;1.00;;;2.10;99.90;;;;;;2061016;28;20315;-76
2024/02/23 04:22:20;;;;;;;0.90;0.70;;;2.10;99.90;;;;;;2054778;28;20248;-76
2024/02/23 04:23:21;;;;;;;1.83;0.63;;;2.10;99.90;;;;;;2050128;28;20330;-78
2024/02/23 04:24:21;;;;;;;5.43;0.90;;;2.10;99.90;;;;;;2058082;28;20756;-76
2024/02/23 04:25:22;;;;;;;1.03;0.50;;;2.00;99.90;;;;;;2058798;28;20638;-76
2024/02/23 04:26:22;;;;;;;0.97;0.60;;;2.10;99.90;;;;;;2058196;28;20609;-76
2024/02/23 04:27:23;;;;;;;2.47;0.63;;;2.10;99.90;;;;;;2054457;28;20612;-77
2024/02/23 04:28:26;;;;;;;4.03;1.10;;;2.10;99.90;;;;;;2058690;28;20351;-76
2024/02/23 04:29:27;;;;;;;2.22;0.80;;;2.00;99.90;;;;;;2055657;28;20320;-76
2024/02/23 04:30:27;;;;;;;3.83;0.97;;;2.10;99.90;;;;;;2049741;28;20288;-77
2024/02/23 04:31:28;;;;;;;3.27;0.93;;;2.00;99.90;;;;;;2050655;28;20242;-77
2024/02/23 04:32:28;;;;;;;0.90;0.70;;;2.00;99.90;;;;;;2055920;28;20245;-76
2024/02/23 04:33:29;;;;;;;3.57;0.77;;;2.00;99.90;;;;;;2049971;28;20305;-73
2024/02/23 04:34:29;;;;;;;1.33;0.77;;;2.00;99.90;;;;;;2054263;28;20652;-76
2024/02/23 04:35:30;;;;;;;1.23;0.70;;;2.00;99.90;;;;;;2061044;28;20237;-76
2024/02/23 04:36:30;;;;;;;1.43;0.60;;;1.90;99.90;;;;;;2061923;28;20283;-76
2024/02/23 04:37:31;;;;;;;1.33;0.87;;;1.90;99.90;;;;;;2062040;28;20237;-76
2024/02/23 04:38:32;;;;;;;0.97;0.70;;;1.90;99.90;;;;;;2059340;28;20240;-77
2024/02/23 04:39:33;;;;;;;1.05;0.50;;;1.90;99.90;;;;;;2056607;28;20243;-76
2024/02/23 04:40:33;;;;;;;2.50;0.87;;;1.80;99.90;;;;;;2055155;28;20237;-76
2024/02/23 04:41:34;;;;;;;1.47;0.67;;;1.80;99.90;;;;;;2055969;28;20234;-76
2024/02/23 04:42:34;;;;;;;0.60;0.60;;;1.80;99.90;;;;;;2050675;28;20240;-76
2024/02/23 04:43:35;;;;;;;0.50;0.50;;;1.90;99.90;;;;;;2050441;28;20241;-77
2024/02/23 04:44:36;;;;;;;1.83;0.97;;;1.80;99.90;;;;;;2050881;28;20245;-76
2024/02/23 04:45:36;;;;;;;3.50;0.63;;;1.90;99.90;;;;;;2052632;28;20272;-77
2024/02/23 04:46:37;;;;;;;2.20;0.70;;;1.90;99.90;;;;;;2049303;28;20244;-77
2024/02/23 04:47:40;;;;;;;1.30;0.80;;;1.80;99.90;;;;;;2055522;28;20233;-76
2024/02/23 04:48:41;;;;;;;2.53;0.70;;;1.70;99.90;;;;;;2060941;28;20226;-76
2024/02/23 04:49:41;;;;;;;0.80;0.68;;;1.70;99.90;;;;;;2061806;28;20236;-76
2024/02/23 04:50:42;;;;;;;0.67;0.50;;;1.70;99.90;;;;;;2057049;28;20233;-76
2024/02/23 04:51:43;;;;;;;4.57;1.10;;;1.70;99.90;;;;;;2056471;28;20242;-76
2024/02/23 04:52:44;;;;;;;2.65;0.60;;;1.70;99.90;;;;;;2055963;28;20233;-76
2024/02/23 04:53:44;;;;;;;1.03;0.67;;;1.70;99.90;;;;;;2061184;28;20314;-76
2024/02/23 04:54:45;;;;;;;3.83;1.00;;;1.70;99.90;;;;;;2054648;28;20242;-77
2024/02/23 04:55:46;;;;;;;0.80;0.80;;;1.70;99.90;;;;;;2045912;29;20253;-76
2024/02/23 04:56:47;;;;;;;1.57;0.80;;;1.70;99.90;;;;;;2050732;28;20231;-77
2024/02/23 04:57:48;;;;;;;1.02;0.52;;;1.80;99.90;;;;;;2060851;28;20304;-77
2024/02/23 04:58:48;;;;;;;1.47;0.57;;;1.80;99.90;;;;;;2062793;28;20226;-77
2024/02/23 04:59:49;;;;;;;0.87;0.50;;;1.70;99.90;;;;;;2056146;28;20237;-77
2024/02/23 05:00:49;;;;;;;1.60;0.50;;;1.70;99.90;;;;;;2061396;28;20295;-77
2024/02/23 05:01:50;;;;;;;1.07;0.70;;;1.70;99.90;;;;;;2058548;28;20699;-76
2024/02/23 05:02:50;;;;;;;0.97;0.67;;;1.70;99.90;;;;;;2057840;28;20674;-78
2024/02/23 05:03:52;;;;;;;0.90;0.50;;;1.70;99.90;;;;;;2057496;28;20634;-76
2024/02/23 05:04:52;;;;;;;4.22;0.63;;;1.70;99.90;;;;;;2062258;28;20251;-76
2024/02/23 05:05:53;;;;;;;1.63;0.67;;;1.60;99.90;;;;;;2052782;28;20714;-76
2024/02/23 05:06:54;;;;;;;1.98;1.02;;;1.60;99.90;;;;;;2050569;28;20712;-76
2024/02/23 05:07:54;;;;;;;1.20;0.80;;;1.60;99.90;;;;;;2061178;28;20213;-76
2024/02/23 05:08:55;;;;;;;1.97;0.80;;;1.60;99.90;;;;;;2053093;28;20187;-76
2024/02/23 05:09:56;;;;;;;0.67;0.60;;;1.60;99.90;;;;;;2055211;28;20197;-77
2024/02/23 05:10:57;;;;;;;1.63;0.70;;;1.60;99.90;;;;;;2061701;28;20184;-78
2024/02/23 05:11:57;;;;;;;2.03;0.65;;;1.60;99.90;;;;;;2052086;28;20186;-77
2024/02/23 05:12:58;;;;;;;0.77;0.60;;;1.60;99.90;;;;;;2050705;28;20273;-76
2024/02/23 05:13:58;;;;;;;1.57;0.80;;;1.60;99.90;;;;;;2059605;28;20181;-76
2024/02/23 05:14:59;;;;;;;2.80;0.73;;;1.60;99.90;;;;;;2053393;28;20193;-76
2024/02/23 05:15:59;;;;;;;0.77;0.60;;;1.60;99.90;;;;;;2052993;28;20175;-76
2024/02/23 05:17:00;;;;;;;1.27;0.90;;;1.60;99.90;;;;;;2053945;28;20207;-76
2024/02/23 05:18:00;;;;;;;2.20;1.13;;;1.50;99.90;;;;;;2053615;28;20186;-77
2024/02/23 05:19:01;;;;;;;2.50;1.00;;;1.50;99.90;;;;;;2054441;28;20264;-77
2024/02/23 05:20:07;;;;;;;2.97;0.70;;;1.60;99.90;;;;;;2049632;28;20754;-76
2024/02/23 05:21:08;;;;;;;3.75;0.73;;;1.50;99.90;;;;;;2051645;28;20230;-76
2024/02/23 05:22:09;;;;;;;2.77;0.80;;;1.50;99.90;;;;;;2060059;28;20181;-76